sensor_id;sensor_type;location;lat;lon;timestamp;pressure;altitude;pressure_sealevel;temperature;humidity
69318;BME280;56457;52.190;4.440;2022-07-17T00:00:57;102878.59;;;17.49;60.05
69318;BME280;56457;52.190;4.440;2022-07-17T00:01:58;102875.94;;;17.50;59.90
69318;BME280;56457;52.190;4.440;2022-07-17T00:02:58;102877.72;;;17.52;59.71
69318;BME280;56457;52.190;4.440;2022-07-17T00:03:59;102882.09;;;17.57;59.32
69318;BME280;56457;52.190;4.440;2022-07-17T00:04:59;102877.72;;;17.53;59.67
69318;BME280;56457;52.190;4.440;2022-07-17T00:06:00;102875.06;;;17.52;59.08
69318;BME280;56457;52.190;4.440;2022-07-17T00:07:00;102871.47;;;17.57;59.02
69318;BME280;56457;52.190;4.440;2022-07-17T00:08:00;102870.63;;;17.58;59.20
69318;BME280;56457;52.190;4.440;2022-07-17T00:09:01;102862.59;;;17.67;58.60
69318;BME280;56457;52.190;4.440;2022-07-17T00:10:02;102869.69;;;17.73;58.31
69318;BME280;56457;52.190;4.440;2022-07-17T00:11:02;102872.31;;;17.68;59.05
69318;BME280;56457;52.190;4.440;2022-07-17T00:12:03;102877.59;;;17.70;59.09
69318;BME280;56457;52.190;4.440;2022-07-17T00:13:04;102875.84;;;17.69;58.84
69318;BME280;56457;52.190;4.440;2022-07-17T00:14:04;102872.31;;;17.68;59.43
69318;BME280;56457;52.190;4.440;2022-07-17T00:15:05;102873.22;;;17.61;58.93
69318;BME280;56457;52.190;4.440;2022-07-17T00:16:06;102871.50;;;17.56;59.56
69318;BME280;56457;52.190;4.440;2022-07-17T00:17:07;102876.78;;;17.57;59.58
69318;BME280;56457;52.190;4.440;2022-07-17T00:18:07;102865.34;;;17.52;59.22
69318;BME280;56457;52.190;4.440;2022-07-17T00:19:07;102866.22;;;17.49;59.10
69318;BME280;56457;52.190;4.440;2022-07-17T00:20:08;102864.47;;;17.45;59.85
69318;BME280;56457;52.190;4.440;2022-07-17T00:21:09;102860.03;;;17.43;59.97
69318;BME280;56457;52.190;4.440;2022-07-17T00:22:09;102866.22;;;17.43;60.17
69318;BME280;56457;52.190;4.440;2022-07-17T00:23:10;102855.63;;;17.39;60.57
69318;BME280;56457;52.190;4.440;2022-07-17T00:24:10;102855.69;;;17.34;60.43
69318;BME280;56457;52.190;4.440;2022-07-17T00:25:12;102857.44;;;17.31;60.45
69318;BME280;56457;52.190;4.440;2022-07-17T00:26:13;102853.03;;;17.31;60.24
69318;BME280;56457;52.190;4.440;2022-07-17T00:27:13;102855.69;;;17.30;60.64
69318;BME280;56457;52.190;4.440;2022-07-17T00:28:14;102859.22;;;17.35;60.36
69318;BME280;56457;52.190;4.440;2022-07-17T00:29:14;102853.00;;;17.36;60.11
69318;BME280;56457;52.190;4.440;2022-07-17T00:30:15;102852.16;;;17.34;60.11
69318;BME280;56457;52.190;4.440;2022-07-17T00:31:16;102851.25;;;17.33;60.31
69318;BME280;56457;52.190;4.440;2022-07-17T00:32:16;102851.25;;;17.33;60.21
69318;BME280;56457;52.190;4.440;2022-07-17T00:33:17;102846.84;;;17.34;60.14
69318;BME280;56457;52.190;4.440;2022-07-17T00:34:17;102843.28;;;17.35;60.22
69318;BME280;56457;52.190;4.440;2022-07-17T00:35:18;102853.00;;;17.33;60.65
69318;BME280;56457;52.190;4.440;2022-07-17T00:36:18;102846.84;;;17.31;60.64
69318;BME280;56457;52.190;4.440;2022-07-17T00:37:18;102845.97;;;17.27;60.91
69318;BME280;56457;52.190;4.440;2022-07-17T00:38:19;102842.44;;;17.25;60.68
69318;BME280;56457;52.190;4.440;2022-07-17T00:39:19;102850.41;;;17.27;60.77
69318;BME280;56457;52.190;4.440;2022-07-17T00:40:21;102846.84;;;17.25;60.17
69318;BME280;56457;52.190;4.440;2022-07-17T00:41:23;102848.66;;;17.22;60.39
69318;BME280;56457;52.190;4.440;2022-07-17T00:42:23;102854.84;;;17.17;60.91
69318;BME280;56457;52.190;4.440;2022-07-17T00:43:25;102854.84;;;17.14;61.41
69318;BME280;56457;52.190;4.440;2022-07-17T00:44:26;102859.25;;;17.19;61.29
69318;BME280;56457;52.190;4.440;2022-07-17T00:45:27;102849.53;;;17.23;60.70
69318;BME280;56457;52.190;4.440;2022-07-17T00:46:28;102851.25;;;17.30;60.53
69318;BME280;56457;52.190;4.440;2022-07-17T00:47:28;102849.50;;;17.26;61.12
69318;BME280;56457;52.190;4.440;2022-07-17T00:48:30;102839.78;;;17.30;60.85
69318;BME280;56457;52.190;4.440;2022-07-17T00:49:31;102838.91;;;17.25;60.74
69318;BME280;56457;52.190;4.440;2022-07-17T00:50:41;102830.94;;;17.29;60.63
69318;BME280;56457;52.190;4.440;2022-07-17T00:51:42;102835.34;;;17.30;60.29
69318;BME280;56457;52.190;4.440;2022-07-17T00:52:42;102830.06;;;17.29;60.40
69318;BME280;56457;52.190;4.440;2022-07-17T00:53:43;102826.53;;;17.28;60.38
69318;BME280;56457;52.190;4.440;2022-07-17T00:54:46;102823.88;;;17.27;60.69
69318;BME280;56457;52.190;4.440;2022-07-17T00:55:47;102830.03;;;17.30;60.50
69318;BME280;56457;52.190;4.440;2022-07-17T00:56:48;102833.59;;;17.29;60.66
69318;BME280;56457;52.190;4.440;2022-07-17T00:57:49;102826.50;;;17.25;61.19
69318;BME280;56457;52.190;4.440;2022-07-17T00:58:50;102823.00;;;17.23;61.01
69318;BME280;56457;52.190;4.440;2022-07-17T00:59:50;102827.44;;;17.22;61.04
69318;BME280;56457;52.190;4.440;2022-07-17T01:00:52;102821.25;;;17.16;60.65
69318;BME280;56457;52.190;4.440;2022-07-17T01:01:53;102821.25;;;17.13;61.47
69318;BME280;56457;52.190;4.440;2022-07-17T01:02:54;102817.75;;;17.09;61.34
69318;BME280;56457;52.190;4.440;2022-07-17T01:03:55;102815.97;;;17.10;61.17
69318;BME280;56457;52.190;4.440;2022-07-17T01:04:55;102819.47;;;17.13;61.32
69318;BME280;56457;52.190;4.440;2022-07-17T01:05:55;102822.16;;;17.15;61.67
69318;BME280;56457;52.190;4.440;2022-07-17T01:06:57;102823.03;;;17.15;61.67
69318;BME280;56457;52.190;4.440;2022-07-17T01:07:57;102826.59;;;17.07;61.93
69318;BME280;56457;52.190;4.440;2022-07-17T01:08:58;102825.69;;;17.11;61.72
69318;BME280;56457;52.190;4.440;2022-07-17T01:09:58;102821.28;;;17.14;62.00
69318;BME280;56457;52.190;4.440;2022-07-17T01:10:59;102821.25;;;17.17;61.17
69318;BME280;56457;52.190;4.440;2022-07-17T01:12:00;102823.00;;;17.18;61.60
69318;BME280;56457;52.190;4.440;2022-07-17T01:13:00;102828.31;;;17.14;62.17
69318;BME280;56457;52.190;4.440;2022-07-17T01:14:01;102829.22;;;17.11;61.96
69318;BME280;56457;52.190;4.440;2022-07-17T01:15:02;102831.00;;;17.08;62.33
69318;BME280;56457;52.190;4.440;2022-07-17T01:16:03;102828.34;;;17.09;62.36
69318;BME280;56457;52.190;4.440;2022-07-17T01:17:04;102823.06;;;17.05;62.30
69318;BME280;56457;52.190;4.440;2022-07-17T01:18:10;102829.25;;;17.10;61.98
69318;BME280;56457;52.190;4.440;2022-07-17T01:19:11;102830.13;;;17.07;62.70
69318;BME280;56457;52.190;4.440;2022-07-17T01:20:11;102827.50;;;17.03;62.72
69318;BME280;56457;52.190;4.440;2022-07-17T01:21:12;102828.34;;;17.06;62.40
69318;BME280;56457;52.190;4.440;2022-07-17T01:22:12;102827.47;;;17.07;62.33
69318;BME280;56457;52.190;4.440;2022-07-17T01:23:14;102830.13;;;17.10;62.38
69318;BME280;56457;52.190;4.440;2022-07-17T01:24:16;102825.72;;;17.09;62.79
69318;BME280;56457;52.190;4.440;2022-07-17T01:25:20;102829.22;;;17.11;62.72
69318;BME280;56457;52.190;4.440;2022-07-17T01:26:20;102821.28;;;17.08;62.85
69318;BME280;56457;52.190;4.440;2022-07-17T01:27:21;102823.06;;;17.09;62.98
69318;BME280;56457;52.190;4.440;2022-07-17T01:28:21;102836.31;;;17.05;62.63
69318;BME280;56457;52.190;4.440;2022-07-17T01:29:22;102829.25;;;17.05;62.86
69318;BME280;56457;52.190;4.440;2022-07-17T01:30:23;102829.25;;;17.08;63.23
69318;BME280;56457;52.190;4.440;2022-07-17T01:31:24;102827.47;;;17.07;63.48
69318;BME280;56457;52.190;4.440;2022-07-17T01:32:32;102831.03;;;17.03;63.63
69318;BME280;56457;52.190;4.440;2022-07-17T01:33:32;102827.50;;;17.00;63.75
69318;BME280;56457;52.190;4.440;2022-07-17T01:34:33;102831.03;;;17.03;63.43
69318;BME280;56457;52.190;4.440;2022-07-17T01:35:33;102824.84;;;17.03;63.50
69318;BME280;56457;52.190;4.440;2022-07-17T01:36:34;102830.13;;;17.04;63.48
69318;BME280;56457;52.190;4.440;2022-07-17T01:37:35;102825.72;;;17.03;63.61
69318;BME280;56457;52.190;4.440;2022-07-17T01:38:35;102831.03;;;17.03;63.59
69318;BME280;56457;52.190;4.440;2022-07-17T01:39:36;102829.25;;;17.05;63.21
69318;BME280;56457;52.190;4.440;2022-07-17T01:40:54;102823.94;;;17.08;63.48
69318;BME280;56457;52.190;4.440;2022-07-17T01:41:55;102826.59;;;17.08;63.19
69318;BME280;56457;52.190;4.440;2022-07-17T01:42:55;102826.56;;;17.11;63.09
69318;BME280;56457;52.190;4.440;2022-07-17T01:43:56;102823.03;;;17.15;63.01
69318;BME280;56457;52.190;4.440;2022-07-17T01:44:57;102818.63;;;17.14;62.92
69318;BME280;56457;52.190;4.440;2022-07-17T01:45:58;102825.66;;;17.18;63.21
69318;BME280;56457;52.190;4.440;2022-07-17T01:46:58;102824.81;;;17.12;62.95
69318;BME280;56457;52.190;4.440;2022-07-17T01:47:58;102829.22;;;17.11;63.00
69318;BME280;56457;52.190;4.440;2022-07-17T01:48:59;102831.00;;;17.09;63.13
69318;BME280;56457;52.190;4.440;2022-07-17T01:50:02;102835.41;;;17.07;63.41
69318;BME280;56457;52.190;4.440;2022-07-17T01:51:03;102834.53;;;17.10;63.58
69318;BME280;56457;52.190;4.440;2022-07-17T01:52:04;102837.19;;;17.14;63.35
69318;BME280;56457;52.190;4.440;2022-07-17T01:53:04;102835.41;;;17.12;63.29
69318;BME280;56457;52.190;4.440;2022-07-17T01:54:04;102830.13;;;17.10;63.31
69318;BME280;56457;52.190;4.440;2022-07-17T01:55:06;102841.56;;;17.14;63.57
69318;BME280;56457;52.190;4.440;2022-07-17T01:56:07;102836.28;;;17.15;63.60
69318;BME280;56457;52.190;4.440;2022-07-17T01:57:08;102840.72;;;17.16;62.69
69318;BME280;56457;52.190;4.440;2022-07-17T01:58:08;102838.94;;;17.11;62.91
69318;BME280;56457;52.190;4.440;2022-07-17T01:59:09;102838.06;;;17.07;63.64
69318;BME280;56457;52.190;4.440;2022-07-17T02:00:13;102838.09;;;17.01;64.05
69318;BME280;56457;52.190;4.440;2022-07-17T02:01:15;102838.09;;;17.01;63.74
69318;BME280;56457;52.190;4.440;2022-07-17T02:02:15;102835.44;;;17.00;63.65
69318;BME280;56457;52.190;4.440;2022-07-17T02:03:16;102834.59;;;16.98;63.96
69318;BME280;56457;52.190;4.440;2022-07-17T02:04:16;102825.75;;;16.97;63.95
69318;BME280;56457;52.190;4.440;2022-07-17T02:05:16;102821.34;;;16.96;63.40
69318;BME280;56457;52.190;4.440;2022-07-17T02:06:17;102825.75;;;16.92;63.76
69318;BME280;56457;52.190;4.440;2022-07-17T02:07:17;102822.22;;;16.92;64.05
69318;BME280;56457;52.190;4.440;2022-07-17T02:08:18;102816.91;;;16.89;64.15
69318;BME280;56457;52.190;4.440;2022-07-17T02:09:18;102824.00;;;16.87;64.40
69318;BME280;56457;52.190;4.440;2022-07-17T02:10:18;102816.03;;;16.87;64.23
69318;BME280;56457;52.190;4.440;2022-07-17T02:11:19;102820.47;;;16.86;64.22
69318;BME280;56457;52.190;4.440;2022-07-17T02:12:19;102822.22;;;16.87;63.90
69318;BME280;56457;52.190;4.440;2022-07-17T02:13:19;102824.88;;;16.87;64.31
69318;BME280;56457;52.190;4.440;2022-07-17T02:14:21;102823.13;;;16.86;64.03
69318;BME280;56457;52.190;4.440;2022-07-17T02:15:21;102829.28;;;16.88;64.70
69318;BME280;56457;52.190;4.440;2022-07-17T02:16:22;102821.34;;;16.91;64.25
69318;BME280;56457;52.190;4.440;2022-07-17T02:17:22;102823.97;;;16.93;64.06
69318;BME280;56457;52.190;4.440;2022-07-17T02:18:22;102827.53;;;16.92;64.07
69318;BME280;56457;52.190;4.440;2022-07-17T02:19:23;102826.63;;;16.94;63.61
69318;BME280;56457;52.190;4.440;2022-07-17T02:20:24;102828.44;;;16.89;64.53
69318;BME280;56457;52.190;4.440;2022-07-17T02:21:24;102826.66;;;16.87;64.43
69318;BME280;56457;52.190;4.440;2022-07-17T02:22:24;102834.59;;;16.93;63.98
69318;BME280;56457;52.190;4.440;2022-07-17T02:23:25;102831.06;;;16.95;64.18
69318;BME280;56457;52.190;4.440;2022-07-17T02:24:25;102834.59;;;16.96;64.46
69318;BME280;56457;52.190;4.440;2022-07-17T02:25:25;102828.38;;;16.99;64.01
69318;BME280;56457;52.190;4.440;2022-07-17T02:26:26;102836.31;;;17.00;64.19
69318;BME280;56457;52.190;4.440;2022-07-17T02:27:26;102842.50;;;17.01;64.36
69318;BME280;56457;52.190;4.440;2022-07-17T02:28:27;102839.84;;;17.01;63.94
69318;BME280;56457;52.190;4.440;2022-07-17T02:29:27;102842.53;;;16.99;64.06
69318;BME280;56457;52.190;4.440;2022-07-17T02:30:27;102838.09;;;17.01;64.18
69318;BME280;56457;52.190;4.440;2022-07-17T02:31:29;102839.00;;;16.99;64.17
69318;BME280;56457;52.190;4.440;2022-07-17T02:32:29;102839.88;;;16.99;64.25
69318;BME280;56457;52.190;4.440;2022-07-17T02:33:30;102842.53;;;16.99;63.98
69318;BME280;56457;52.190;4.440;2022-07-17T02:34:30;102837.22;;;16.98;63.94
69318;BME280;56457;52.190;4.440;2022-07-17T02:35:31;102841.66;;;16.97;64.15
69318;BME280;56457;52.190;4.440;2022-07-17T02:36:31;102846.09;;;16.90;64.20
69318;BME280;56457;52.190;4.440;2022-07-17T02:37:32;102846.09;;;16.84;64.53
69318;BME280;56457;52.190;4.440;2022-07-17T02:38:33;102853.19;;;16.84;65.13
69318;BME280;56457;52.190;4.440;2022-07-17T02:39:34;102850.50;;;16.87;64.32
69318;BME280;56457;52.190;4.440;2022-07-17T02:40:34;102854.94;;;16.91;64.72
69318;BME280;56457;52.190;4.440;2022-07-17T02:41:35;102861.09;;;16.96;64.59
69318;BME280;56457;52.190;4.440;2022-07-17T02:42:35;102861.09;;;16.96;64.93
69318;BME280;56457;52.190;4.440;2022-07-17T02:43:36;102861.09;;;16.94;64.90
69318;BME280;56457;52.190;4.440;2022-07-17T02:44:36;102858.44;;;16.94;64.47
69318;BME280;56457;52.190;4.440;2022-07-17T02:45:37;102849.63;;;16.92;64.43
69318;BME280;56457;52.190;4.440;2022-07-17T02:46:37;102857.59;;;16.85;64.73
69318;BME280;56457;52.190;4.440;2022-07-17T02:47:37;102855.84;;;16.79;65.04
69318;BME280;56457;52.190;4.440;2022-07-17T02:48:38;102853.16;;;16.81;65.11
69318;BME280;56457;52.190;4.440;2022-07-17T02:49:38;102857.63;;;16.77;64.93
69318;BME280;56457;52.190;4.440;2022-07-17T02:50:38;102850.53;;;16.75;64.76
69318;BME280;56457;52.190;4.440;2022-07-17T02:51:39;102856.69;;;16.77;65.38
69318;BME280;56457;52.190;4.440;2022-07-17T02:52:39;102856.72;;;16.74;65.48
69318;BME280;56457;52.190;4.440;2022-07-17T02:53:40;102853.19;;;16.70;65.54
69318;BME280;56457;52.190;4.440;2022-07-17T02:54:40;102857.56;;;16.69;65.01
69318;BME280;56457;52.190;4.440;2022-07-17T02:55:41;102858.44;;;16.68;65.14
69318;BME280;56457;52.190;4.440;2022-07-17T02:56:41;102858.47;;;16.70;65.23
69318;BME280;56457;52.190;4.440;2022-07-17T02:57:42;102853.19;;;16.59;65.55
69318;BME280;56457;52.190;4.440;2022-07-17T02:58:43;102861.13;;;16.56;65.69
69318;BME280;56457;52.190;4.440;2022-07-17T02:59:44;102858.47;;;16.56;65.63
69318;BME280;56457;52.190;4.440;2022-07-17T03:00:45;102861.13;;;16.50;66.00
69318;BME280;56457;52.190;4.440;2022-07-17T03:01:45;102862.88;;;16.51;66.02
69318;BME280;56457;52.190;4.440;2022-07-17T03:02:46;102864.66;;;16.49;66.56
69318;BME280;56457;52.190;4.440;2022-07-17T03:03:46;102864.66;;;16.46;66.48
69318;BME280;56457;52.190;4.440;2022-07-17T03:04:47;102861.13;;;16.44;65.87
69318;BME280;56457;52.190;4.440;2022-07-17T03:05:47;102855.81;;;16.44;66.04
69318;BME280;56457;52.190;4.440;2022-07-17T03:06:48;102850.50;;;16.44;66.10
69318;BME280;56457;52.190;4.440;2022-07-17T03:07:48;102852.28;;;16.48;66.31
69318;BME280;56457;52.190;4.440;2022-07-17T03:08:49;102857.59;;;16.43;66.21
69318;BME280;56457;52.190;4.440;2022-07-17T03:09:50;102849.66;;;16.42;66.48
69318;BME280;56457;52.190;4.440;2022-07-17T03:10:51;102850.53;;;16.41;66.21
69318;BME280;56457;52.190;4.440;2022-07-17T03:11:52;102852.31;;;16.40;65.98
69318;BME280;56457;52.190;4.440;2022-07-17T03:12:52;102847.88;;;16.38;66.15
69318;BME280;56457;52.190;4.440;2022-07-17T03:13:53;102849.66;;;16.34;66.35
69318;BME280;56457;52.190;4.440;2022-07-17T03:14:53;102846.13;;;16.34;66.47
69318;BME280;56457;52.190;4.440;2022-07-17T03:15:53;102848.78;;;16.34;66.25
69318;BME280;56457;52.190;4.440;2022-07-17T03:16:54;102844.34;;;16.30;66.49
69318;BME280;56457;52.190;4.440;2022-07-17T03:17:54;102852.28;;;16.27;66.64
69318;BME280;56457;52.190;4.440;2022-07-17T03:18:54;102851.41;;;16.22;66.69
69318;BME280;56457;52.190;4.440;2022-07-17T03:19:55;102859.34;;;16.19;67.20
69318;BME280;56457;52.190;4.440;2022-07-17T03:20:55;102854.91;;;16.21;66.80
69318;BME280;56457;52.190;4.440;2022-07-17T03:21:55;102867.28;;;16.20;67.03
69318;BME280;56457;52.190;4.440;2022-07-17T03:22:56;102857.56;;;16.14;66.94
69318;BME280;56457;52.190;4.440;2022-07-17T03:23:56;102857.59;;;16.16;67.01
69318;BME280;56457;52.190;4.440;2022-07-17T03:24:57;102856.72;;;16.15;67.03
69318;BME280;56457;52.190;4.440;2022-07-17T03:25:57;102857.59;;;16.16;67.24
69318;BME280;56457;52.190;4.440;2022-07-17T03:26:57;102854.91;;;16.21;66.93
69318;BME280;56457;52.190;4.440;2022-07-17T03:27:58;102852.28;;;16.21;66.61
69318;BME280;56457;52.190;4.440;2022-07-17T03:28:59;102847.00;;;16.18;66.97
69318;BME280;56457;52.190;4.440;2022-07-17T03:29:59;102832.88;;;16.17;66.97
69318;BME280;56457;52.190;4.440;2022-07-17T03:30:59;102838.16;;;16.15;66.81
69318;BME280;56457;52.190;4.440;2022-07-17T03:32:00;102832.84;;;16.12;67.24
69318;BME280;56457;52.190;4.440;2022-07-17T03:33:00;102833.72;;;16.08;66.93
69318;BME280;56457;52.190;4.440;2022-07-17T03:34:01;102828.44;;;16.07;66.96
69318;BME280;56457;52.190;4.440;2022-07-17T03:35:01;102842.56;;;16.04;67.16
69318;BME280;56457;52.190;4.440;2022-07-17T03:36:02;102844.31;;;16.01;67.57
69318;BME280;56457;52.190;4.440;2022-07-17T03:37:03;102839.03;;;16.01;68.00
69318;BME280;56457;52.190;4.440;2022-07-17T03:38:04;102839.91;;;16.01;67.31
69318;BME280;56457;52.190;4.440;2022-07-17T03:39:05;102850.50;;;16.04;67.53
69318;BME280;56457;52.190;4.440;2022-07-17T03:40:06;102845.22;;;16.06;67.11
69318;BME280;56457;52.190;4.440;2022-07-17T03:41:07;102834.63;;;16.10;67.12
69318;BME280;56457;52.190;4.440;2022-07-17T03:42:07;102840.78;;;16.14;66.42
69318;BME280;56457;52.190;4.440;2022-07-17T03:43:08;102839.94;;;16.15;66.33
69318;BME280;56457;52.190;4.440;2022-07-17T03:44:08;102839.91;;;16.20;66.52
69318;BME280;56457;52.190;4.440;2022-07-17T03:45:09;102846.09;;;16.17;66.34
69318;BME280;56457;52.190;4.440;2022-07-17T03:46:10;102837.28;;;16.12;66.65
69318;BME280;56457;52.190;4.440;2022-07-17T03:47:11;102849.59;;;16.08;66.92
69318;BME280;56457;52.190;4.440;2022-07-17T03:48:12;102848.75;;;16.09;66.70
69318;BME280;56457;52.190;4.440;2022-07-17T03:49:12;102849.63;;;16.11;67.00
69318;BME280;56457;52.190;4.440;2022-07-17T03:50:12;102849.63;;;16.14;67.14
69318;BME280;56457;52.190;4.440;2022-07-17T03:51:13;102854.06;;;16.17;66.35
69318;BME280;56457;52.190;4.440;2022-07-17T03:52:13;102846.09;;;16.20;66.32
69318;BME280;56457;52.190;4.440;2022-07-17T03:53:14;102850.53;;;16.21;66.70
69318;BME280;56457;52.190;4.440;2022-07-17T03:54:14;102851.41;;;16.17;66.65
69318;BME280;56457;52.190;4.440;2022-07-17T03:55:14;102844.34;;;16.16;66.26
69318;BME280;56457;52.190;4.440;2022-07-17T03:56:15;102853.19;;;16.17;66.74
69318;BME280;56457;52.190;4.440;2022-07-17T03:57:15;102847.84;;;16.13;66.81
69318;BME280;56457;52.190;4.440;2022-07-17T03:58:16;102847.88;;;16.10;67.16
69318;BME280;56457;52.190;4.440;2022-07-17T03:59:16;102850.50;;;16.04;67.07
69318;BME280;56457;52.190;4.440;2022-07-17T04:00:17;102859.34;;;16.03;67.30
69318;BME280;56457;52.190;4.440;2022-07-17T04:01:17;102858.47;;;16.10;66.88
69318;BME280;56457;52.190;4.440;2022-07-17T04:02:17;102860.22;;;16.14;67.11
69318;BME280;56457;52.190;4.440;2022-07-17T04:03:18;102862.88;;;16.18;67.18
69318;BME280;56457;52.190;4.440;2022-07-17T04:24:19;102862.84;;;15.93;67.88
69318;BME280;56457;52.190;4.440;2022-07-17T04:25:19;102852.25;;;15.99;68.25
69318;BME280;56457;52.190;4.440;2022-07-17T04:26:20;102854.03;;;15.99;68.35
69318;BME280;56457;52.190;4.440;2022-07-17T04:27:20;102847.84;;;16.01;68.14
69318;BME280;56457;52.190;4.440;2022-07-17T04:28:21;102854.03;;;15.97;68.28
69318;BME280;56457;52.190;4.440;2022-07-17T04:29:21;102858.44;;;15.97;68.51
69318;BME280;56457;52.190;4.440;2022-07-17T04:30:22;102864.59;;;16.00;68.44
69318;BME280;56457;52.190;4.440;2022-07-17T04:31:23;102862.88;;;16.05;68.45
69318;BME280;56457;52.190;4.440;2022-07-17T04:32:23;102871.69;;;16.10;68.45
69318;BME280;56457;52.190;4.440;2022-07-17T04:33:24;102868.16;;;16.14;67.98
69318;BME280;56457;52.190;4.440;2022-07-17T04:34:24;102862.88;;;16.16;67.83
69318;BME280;56457;52.190;4.440;2022-07-17T04:35:25;102858.47;;;16.20;68.02
69318;BME280;56457;52.190;4.440;2022-07-17T04:36:25;102856.69;;;16.26;68.12
69318;BME280;56457;52.190;4.440;2022-07-17T04:37:25;102865.53;;;16.30;68.21
69318;BME280;56457;52.190;4.440;2022-07-17T04:38:26;102856.69;;;16.26;68.21
69318;BME280;56457;52.190;4.440;2022-07-17T04:39:29;102854.91;;;16.27;68.39
69318;BME280;56457;52.190;4.440;2022-07-17T04:40:30;102865.53;;;16.27;68.42
69318;BME280;56457;52.190;4.440;2022-07-17T04:41:30;102869.06;;;16.32;68.14
69318;BME280;56457;52.190;4.440;2022-07-17T04:42:30;102863.75;;;16.33;68.14
69318;BME280;56457;52.190;4.440;2022-07-17T04:43:31;102859.38;;;16.35;68.69
69318;BME280;56457;52.190;4.440;2022-07-17T04:44:31;102862.88;;;16.39;68.73
69318;BME280;56457;52.190;4.440;2022-07-17T04:45:33;102860.25;;;16.43;68.47
69318;BME280;56457;52.190;4.440;2022-07-17T04:46:33;102861.09;;;16.46;68.81
69318;BME280;56457;52.190;4.440;2022-07-17T04:47:34;102865.56;;;16.47;68.81
69318;BME280;56457;52.190;4.440;2022-07-17T04:48:35;102862.91;;;16.42;69.40
69318;BME280;56457;52.190;4.440;2022-07-17T04:49:36;102860.25;;;16.42;69.41
69318;BME280;56457;52.190;4.440;2022-07-17T04:50:36;102859.38;;;16.41;69.02
69318;BME280;56457;52.190;4.440;2022-07-17T04:51:36;102861.13;;;16.47;69.34
69318;BME280;56457;52.190;4.440;2022-07-17T04:52:37;102848.78;;;16.52;69.22
69318;BME280;56457;52.190;4.440;2022-07-17T04:53:37;102854.06;;;16.58;68.97
69318;BME280;56457;52.190;4.440;2022-07-17T04:54:38;102853.19;;;16.59;68.58
69318;BME280;56457;52.190;4.440;2022-07-17T04:55:38;102850.50;;;16.62;68.93
69318;BME280;56457;52.190;4.440;2022-07-17T04:56:38;102854.03;;;16.64;68.83
69318;BME280;56457;52.190;4.440;2022-07-17T04:57:39;102852.25;;;16.63;68.72
69318;BME280;56457;52.190;4.440;2022-07-17T04:58:39;102850.53;;;16.65;68.42
69318;BME280;56457;52.190;4.440;2022-07-17T04:59:40;102852.25;;;16.69;68.53
69318;BME280;56457;52.190;4.440;2022-07-17T05:00:40;102853.19;;;16.73;68.93
69318;BME280;56457;52.190;4.440;2022-07-17T05:01:40;102847.88;;;16.75;68.50
69318;BME280;56457;52.190;4.440;2022-07-17T05:02:41;102859.34;;;16.75;68.63
69318;BME280;56457;52.190;4.440;2022-07-17T05:03:41;102862.00;;;16.71;68.29
69318;BME280;56457;52.190;4.440;2022-07-17T05:04:41;102850.53;;;16.65;68.83
69318;BME280;56457;52.190;4.440;2022-07-17T05:05:42;102854.91;;;16.68;68.71
69318;BME280;56457;52.190;4.440;2022-07-17T05:06:42;102846.09;;;16.67;68.64
69318;BME280;56457;52.190;4.440;2022-07-17T05:07:43;102849.63;;;16.68;68.77
69318;BME280;56457;52.190;4.440;2022-07-17T05:08:43;102848.75;;;16.71;68.18
69318;BME280;56457;52.190;4.440;2022-07-17T05:09:43;102856.72;;;16.72;68.86
69318;BME280;56457;52.190;4.440;2022-07-17T05:10:44;102854.91;;;16.69;69.01
69318;BME280;56457;52.190;4.440;2022-07-17T05:11:45;102854.91;;;16.68;69.16
69318;BME280;56457;52.190;4.440;2022-07-17T05:12:45;102856.72;;;16.71;68.66
69318;BME280;56457;52.190;4.440;2022-07-17T05:13:45;102853.19;;;16.75;68.51
69318;BME280;56457;52.190;4.440;2022-07-17T05:14:46;102854.94;;;16.76;68.62
69318;BME280;56457;52.190;4.440;2022-07-17T05:15:46;102852.28;;;16.76;68.51
69318;BME280;56457;52.190;4.440;2022-07-17T05:16:47;102846.97;;;16.76;68.64
69318;BME280;56457;52.190;4.440;2022-07-17T05:17:47;102852.28;;;16.76;68.37
69318;BME280;56457;52.190;4.440;2022-07-17T05:18:47;102853.19;;;16.78;68.32
69318;BME280;56457;52.190;4.440;2022-07-17T05:19:48;102852.28;;;16.82;67.78
69318;BME280;56457;52.190;4.440;2022-07-17T05:20:48;102862.91;;;16.83;68.32
69318;BME280;56457;52.190;4.440;2022-07-17T05:21:49;102864.63;;;16.87;67.76
69318;BME280;56457;52.190;4.440;2022-07-17T05:22:49;102868.19;;;16.89;67.61
69318;BME280;56457;52.190;4.440;2022-07-17T05:23:50;102866.41;;;16.90;67.01
69318;BME280;56457;52.190;4.440;2022-07-17T05:24:50;102858.44;;;16.94;67.28
69318;BME280;56457;52.190;4.440;2022-07-17T05:25:51;102861.09;;;16.96;66.95
69318;BME280;56457;52.190;4.440;2022-07-17T05:26:51;102864.63;;;16.92;67.06
69318;BME280;56457;52.190;4.440;2022-07-17T05:27:52;102859.34;;;16.92;66.42
69318;BME280;56457;52.190;4.440;2022-07-17T05:28:52;102862.00;;;16.84;65.72
69318;BME280;56457;52.190;4.440;2022-07-17T05:29:53;102860.25;;;16.79;66.12
69318;BME280;56457;52.190;4.440;2022-07-17T05:30:53;102858.47;;;16.84;66.06
69318;BME280;56457;52.190;4.440;2022-07-17T05:31:53;102858.47;;;16.87;65.76
69318;BME280;56457;52.190;4.440;2022-07-17T05:32:54;102862.88;;;16.82;65.50
69318;BME280;56457;52.190;4.440;2022-07-17T05:33:54;102855.84;;;16.79;65.90
69318;BME280;56457;52.190;4.440;2022-07-17T05:34:54;102855.81;;;16.87;65.70
69318;BME280;56457;52.190;4.440;2022-07-17T05:35:55;102852.28;;;16.89;65.74
69318;BME280;56457;52.190;4.440;2022-07-17T05:36:55;102856.66;;;16.98;65.64
69318;BME280;56457;52.190;4.440;2022-07-17T05:37:55;102851.38;;;16.97;66.58